Time;durP1;ratioP1;P1;durP2;ratioP2;P2;SDS_P1;SDS_P2;PMS_P1;PMS_P2;Temp;Humidity;BMP_temperature;BMP_pressure;BME280_temperature;BME280_humidity;BME280_pressure;Samples;Min_cycle;Max_cycle;Signal;HPM_P1;HPM_P2
2022/01/05 00:00:07;;;;;;;5.60;3.40;;;5.40;99.90;;;;;;5076252;28;20450;-71
2022/01/05 00:02:35;;;;;;;10.00;4.20;;;5.40;99.90;;;;;;5075218;28;20533;-70
2022/01/05 00:05:02;;;;;;;8.20;4.43;;;5.30;99.90;;;;;;5076000;28;20922;-70
2022/01/05 00:07:29;;;;;;;4.67;3.80;;;5.30;99.90;;;;;;5077058;28;20778;-70
2022/01/05 00:09:58;;;;;;;7.47;4.67;;;5.30;99.90;;;;;;5076491;28;20972;-70
2022/01/05 00:12:26;;;;;;;8.47;4.97;;;5.40;99.90;;;;;;5076273;28;20450;-71
2022/01/05 00:14:53;;;;;;;5.90;4.17;;;5.40;99.90;;;;;;5075529;28;20481;-71
2022/01/05 00:17:20;;;;;;;11.60;4.53;;;5.40;99.90;;;;;;5076029;28;20467;-70
2022/01/05 00:19:46;;;;;;;8.33;3.90;;;5.30;99.90;;;;;;5075997;28;20462;-70
2022/01/05 00:22:13;;;;;;;6.90;5.00;;;5.30;99.90;;;;;;5075757;28;20825;-70
2022/01/05 00:24:41;;;;;;;12.30;4.80;;;5.30;99.90;;;;;;5075933;28;20466;-69
2022/01/05 00:27:08;;;;;;;5.63;4.13;;;5.30;99.90;;;;;;5075861;28;20466;-70
2022/01/05 00:29:36;;;;;;;7.13;4.03;;;5.20;99.90;;;;;;5075316;28;20559;-71
2022/01/05 00:32:03;;;;;;;6.57;3.47;;;5.20;99.90;;;;;;5075770;28;20458;-70
2022/01/05 00:34:29;;;;;;;6.17;3.73;;;5.20;99.90;;;;;;5076019;28;20462;-71
2022/01/05 00:36:56;;;;;;;8.23;4.10;;;5.20;99.90;;;;;;5075968;28;20461;-69
2022/01/05 00:39:23;;;;;;;9.60;4.40;;;5.10;99.90;;;;;;5077054;28;20454;-71
2022/01/05 00:41:50;;;;;;;5.50;3.40;;;5.10;99.90;;;;;;5078586;28;20466;-71
2022/01/05 00:44:18;;;;;;;5.17;2.70;;;5.10;99.90;;;;;;5078795;28;20466;-71
2022/01/05 00:46:46;;;;;;;5.90;3.63;;;5.10;99.90;;;;;;5077534;28;20494;-71
2022/01/05 00:49:13;;;;;;;7.80;3.13;;;5.10;99.90;;;;;;5076171;28;20533;-71
2022/01/05 00:51:40;;;;;;;6.83;2.03;;;5.10;99.90;;;;;;5075799;28;20467;-71
2022/01/05 00:54:07;;;;;;;3.70;2.10;;;5.10;99.90;;;;;;5076117;28;20446;-71
2022/01/05 00:56:33;;;;;;;5.33;2.27;;;5.20;99.90;;;;;;5075860;28;20461;-71
2022/01/05 00:59:00;;;;;;;4.73;2.03;;;5.20;99.90;;;;;;5075575;28;20454;-71
2022/01/05 01:01:27;;;;;;;5.00;2.20;;;5.20;99.90;;;;;;5076086;28;20779;-71
2022/01/05 01:03:55;;;;;;;6.70;1.83;;;5.20;99.90;;;;;;5076738;28;20462;-71
2022/01/05 01:06:22;;;;;;;6.50;2.10;;;5.20;99.90;;;;;;5076680;28;20458;-71
2022/01/05 01:08:48;;;;;;;7.47;2.80;;;5.20;99.90;;;;;;5075922;28;20992;-70
2022/01/05 01:11:15;;;;;;;3.20;2.20;;;5.20;99.90;;;;;;5075077;28;20462;-70
2022/01/05 01:13:43;;;;;;;6.80;2.50;;;5.20;99.90;;;;;;5074519;28;20919;-72
2022/01/05 01:16:10;;;;;;;5.93;2.87;;;5.20;99.90;;;;;;5075108;28;20462;-71
2022/01/05 01:18:37;;;;;;;3.40;2.60;;;5.20;99.90;;;;;;5074642;28;20810;-72
2022/01/05 01:21:05;;;;;;;5.77;2.77;;;5.20;99.90;;;;;;5075667;28;20767;-72
2022/01/05 01:23:32;;;;;;;8.47;2.90;;;5.20;99.90;;;;;;5074964;28;20556;-70
2022/01/05 01:25:58;;;;;;;12.27;3.60;;;5.20;99.90;;;;;;5075020;28;20933;-71
2022/01/05 01:28:25;;;;;;;6.27;3.70;;;5.20;99.90;;;;;;5074703;28;20462;-70
2022/01/05 01:30:52;;;;;;;10.13;4.77;;;5.20;99.90;;;;;;5075807;28;20461;-70
2022/01/05 01:33:20;;;;;;;4.33;2.50;;;5.20;99.90;;;;;;5078238;28;20454;-71
2022/01/05 01:35:47;;;;;;;6.83;2.30;;;5.20;99.90;;;;;;5077954;28;20458;-70
2022/01/05 01:38:15;;;;;;;6.13;1.80;;;5.20;99.90;;;;;;5076668;28;20450;-70
2022/01/05 01:40:42;;;;;;;7.53;1.60;;;5.30;99.90;;;;;;5074968;28;20458;-70
2022/01/05 01:43:09;;;;;;;2.90;1.83;;;5.20;99.90;;;;;;5075058;28;20455;-70
2022/01/05 01:45:35;;;;;;;5.37;1.97;;;5.30;99.90;;;;;;5074655;28;20462;-72
2022/01/05 01:48:02;;;;;;;9.10;2.50;;;5.30;99.90;;;;;;5073970;28;20485;-70
2022/01/05 01:50:29;;;;;;;6.97;3.17;;;5.30;99.90;;;;;;5074357;28;21008;-71
2022/01/05 01:52:55;;;;;;;8.20;3.00;;;5.30;99.90;;;;;;5074679;28;20458;-72
2022/01/05 01:55:23;;;;;;;5.87;3.13;;;5.30;99.90;;;;;;5074529;28;20477;-71
2022/01/05 01:57:50;;;;;;;11.50;3.97;;;5.30;99.90;;;;;;5075348;28;20465;-70
2022/01/05 02:00:17;;;;;;;4.40;2.93;;;5.30;99.90;;;;;;5074592;28;20541;-71
2022/01/05 02:02:46;;;;;;;5.57;3.20;;;5.30;99.90;;;;;;5074389;28;20454;-71
2022/01/05 02:05:14;;;;;;;4.23;2.87;;;5.30;99.90;;;;;;5074581;28;20454;-71
2022/01/05 02:07:40;;;;;;;6.10;2.60;;;5.30;99.90;;;;;;5074582;28;20454;-71
2022/01/05 02:10:11;;;;;;;4.60;2.33;;;5.30;99.90;;;;;;5074406;28;20482;-71
2022/01/05 02:12:39;;;;;;;5.67;2.57;;;5.30;99.90;;;;;;5074431;28;20446;-71
2022/01/05 02:15:07;;;;;;;4.27;1.60;;;5.40;99.90;;;;;;5074635;28;20458;-72
2022/01/05 02:17:45;;;;;;;8.83;2.03;;;5.40;99.90;;;;;;5074490;28;20514;-70
2022/01/05 02:20:14;;;;;;;2.80;1.40;;;5.40;99.90;;;;;;5074159;28;20434;-70
2022/01/05 02:22:42;;;;;;;3.60;1.73;;;5.40;99.90;;;;;;5074794;28;20469;-70
2022/01/05 02:25:09;;;;;;;4.33;1.63;;;5.40;99.90;;;;;;5075756;28;20523;-71
2022/01/05 02:27:38;;;;;;;7.00;2.10;;;5.50;99.90;;;;;;5078346;28;20914;-71
2022/01/05 02:30:06;;;;;;;3.83;1.70;;;5.50;99.90;;;;;;5078090;28;20832;-71
2022/01/05 02:32:33;;;;;;;7.30;1.60;;;5.50;99.90;;;;;;5078229;28;20469;-71
2022/01/05 02:35:00;;;;;;;5.17;2.10;;;5.40;99.90;;;;;;5078559;28;20458;-70
2022/01/05 02:37:26;;;;;;;5.90;2.03;;;5.40;99.90;;;;;;5078082;28;20534;-70
2022/01/05 02:39:54;;;;;;;6.10;2.13;;;5.40;99.90;;;;;;5077556;28;20450;-71
2022/01/05 02:42:25;;;;;;;2.90;1.80;;;5.40;99.90;;;;;;5078129;28;20464;-71
2022/01/05 02:44:52;;;;;;;5.00;2.20;;;5.30;99.90;;;;;;5078018;28;20446;-71
2022/01/05 02:47:19;;;;;;;4.30;2.57;;;5.30;99.90;;;;;;5077127;28;20454;-71
2022/01/05 02:49:45;;;;;;;5.20;2.10;;;5.30;99.90;;;;;;5077571;28;20965;-70
2022/01/05 02:52:13;;;;;;;5.70;2.80;;;5.20;99.90;;;;;;5077122;28;20458;-71
2022/01/05 02:54:39;;;;;;;6.90;2.10;;;5.20;99.90;;;;;;5077574;28;20560;-71
2022/01/05 02:57:08;;;;;;;7.93;2.87;;;5.30;99.90;;;;;;5077574;28;20464;-71
2022/01/05 02:59:34;;;;;;;4.63;2.20;;;5.30;99.90;;;;;;5077778;28;20457;-70
2022/01/05 03:02:01;;;;;;;11.07;2.43;;;5.30;99.90;;;;;;5077554;28;20527;-71
2022/01/05 03:04:28;;;;;;;3.10;1.87;;;5.30;99.90;;;;;;5077850;28;20462;-71
2022/01/05 03:06:54;;;;;;;8.47;3.30;;;5.30;99.90;;;;;;5077753;28;20914;-71
2022/01/05 03:09:21;;;;;;;4.90;2.83;;;5.20;99.90;;;;;;5077810;28;20481;-71
2022/01/05 03:11:48;;;;;;;6.23;2.43;;;5.20;99.90;;;;;;5077556;28;20481;-71
2022/01/05 03:14:16;;;;;;;13.13;2.80;;;5.20;99.90;;;;;;5077461;28;20464;-71
2022/01/05 03:16:42;;;;;;;2.53;2.23;;;5.20;99.90;;;;;;5076954;28;20462;-71
2022/01/05 03:19:11;;;;;;;9.20;3.00;;;5.30;99.90;;;;;;5077303;28;20523;-71
2022/01/05 03:21:38;;;;;;;6.17;2.80;;;5.30;99.90;;;;;;5077080;28;20485;-71
2022/01/05 03:24:06;;;;;;;7.93;1.70;;;5.30;99.90;;;;;;5077019;28;20469;-71
2022/01/05 03:26:33;;;;;;;8.70;2.30;;;5.30;99.90;;;;;;5077105;28;20489;-71
2022/01/05 03:28:59;;;;;;;7.10;4.33;;;5.30;99.90;;;;;;5076510;28;20469;-69
2022/01/05 03:31:27;;;;;;;4.57;2.87;;;5.20;99.90;;;;;;5076993;28;20458;-71
2022/01/05 03:33:54;;;;;;;7.93;2.07;;;5.10;99.90;;;;;;5077037;28;20457;-71
2022/01/05 03:36:21;;;;;;;4.63;1.87;;;5.10;99.90;;;;;;5076205;28;20454;-71
2022/01/05 03:38:47;;;;;;;6.10;2.00;;;5.10;99.90;;;;;;5076835;28;20587;-71
2022/01/05 03:41:14;;;;;;;9.10;2.23;;;5.00;99.90;;;;;;5076960;28;20822;-71
2022/01/05 03:43:41;;;;;;;6.97;2.40;;;5.00;99.90;;;;;;5076498;28;20458;-69
2022/01/05 03:46:08;;;;;;;4.20;2.13;;;5.00;99.90;;;;;;5076748;28;20796;-71
2022/01/05 03:48:36;;;;;;;11.03;3.47;;;5.10;99.90;;;;;;5076347;28;20486;-71
2022/01/05 03:51:03;;;;;;;5.80;3.00;;;5.10;99.90;;;;;;5076478;28;20497;-70
2022/01/05 03:53:29;;;;;;;8.07;3.27;;;5.10;99.90;;;;;;5076919;28;20470;-70
2022/01/05 03:55:56;;;;;;;5.60;3.40;;;5.10;99.90;;;;;;5077147;28;20461;-70
2022/01/05 03:58:25;;;;;;;3.43;2.47;;;5.10;99.90;;;;;;5077848;28;20458;-70
2022/01/05 04:00:52;;;;;;;6.20;3.30;;;5.10;99.90;;;;;;5077154;28;20454;-70
2022/01/05 04:03:19;;;;;;;6.07;2.83;;;5.10;99.90;;;;;;5076853;28;20942;-70
2022/01/05 04:05:48;;;;;;;12.70;2.83;;;5.00;99.90;;;;;;5076309;28;20461;-70
2022/01/05 04:08:15;;;;;;;7.40;2.30;;;5.10;99.90;;;;;;5076733;28;20462;-70
2022/01/05 04:10:42;;;;;;;6.30;2.57;;;5.10;99.90;;;;;;5076951;28;20856;-70
2022/01/05 04:13:09;;;;;;;5.83;2.53;;;5.10;99.90;;;;;;5076525;28;20458;-71
2022/01/05 04:15:36;;;;;;;4.73;1.40;;;5.10;99.90;;;;;;5076953;28;20458;-70
2022/01/05 04:18:03;;;;;;;4.37;1.60;;;5.10;99.90;;;;;;5076596;28;20463;-70
2022/01/05 04:20:29;;;;;;;3.40;1.73;;;5.10;99.90;;;;;;5076387;28;20509;-70
2022/01/05 04:22:57;;;;;;;7.27;2.20;;;5.20;99.90;;;;;;5076107;28;20454;-70
2022/01/05 04:25:24;;;;;;;6.30;2.20;;;5.20;99.90;;;;;;5076457;28;20515;-70
2022/01/05 04:27:51;;;;;;;7.20;2.10;;;5.20;99.90;;;;;;5077126;28;20531;-70
2022/01/05 04:30:22;;;;;;;8.00;2.00;;;5.20;99.90;;;;;;5076413;28;20489;-71
2022/01/05 04:32:48;;;;;;;5.53;2.10;;;5.20;99.90;;;;;;5076253;28;20465;-71
2022/01/05 04:35:15;;;;;;;3.33;1.67;;;5.20;99.90;;;;;;5076533;28;20799;-71
2022/01/05 04:37:42;;;;;;;3.40;1.47;;;5.20;99.90;;;;;;5076449;28;20561;-70
2022/01/05 04:40:12;;;;;;;3.50;1.60;;;5.20;99.90;;;;;;5075492;28;20450;-72
2022/01/05 04:42:42;;;;;;;2.30;2.10;;;5.20;99.90;;;;;;5075790;28;20462;-71
2022/01/05 04:45:09;;;;;;;5.93;1.60;;;5.20;99.90;;;;;;5075753;28;20481;-71
2022/01/05 04:47:36;;;;;;;5.90;1.90;;;5.20;99.90;;;;;;5073311;28;21013;-70
2022/01/05 04:50:04;;;;;;;7.37;2.00;;;5.20;99.90;;;;;;5076143;28;20750;-71
2022/01/05 04:52:30;;;;;;;3.10;1.37;;;5.20;99.90;;;;;;5075559;28;20462;-71
2022/01/05 04:54:57;;;;;;;5.60;1.40;;;5.20;99.90;;;;;;5076122;28;20466;-70
2022/01/05 04:57:25;;;;;;;14.53;2.67;;;5.20;99.90;;;;;;5076026;28;20469;-72
2022/01/05 04:59:52;;;;;;;5.33;1.53;;;5.20;99.90;;;;;;5075681;28;20450;-71
2022/01/05 05:02:18;;;;;;;7.57;1.50;;;5.20;99.90;;;;;;5076200;28;20462;-70
2022/01/05 05:04:45;;;;;;;3.43;1.40;;;5.10;99.90;;;;;;5075583;28;20830;-70
2022/01/05 05:07:12;;;;;;;3.70;1.33;;;5.20;99.90;;;;;;5075479;28;20477;-72
2022/01/05 05:09:38;;;;;;;6.83;1.50;;;5.20;99.90;;;;;;5076560;28;20461;-72
2022/01/05 05:12:07;;;;;;;4.00;1.47;;;5.10;99.90;;;;;;5075823;28;20465;-71
2022/01/05 05:14:35;;;;;;;8.50;1.30;;;5.10;99.90;;;;;;5075065;28;20454;-71
2022/01/05 05:17:01;;;;;;;5.63;1.83;;;5.00;99.90;;;;;;5074736;28;20461;-70
2022/01/05 05:19:28;;;;;;;4.10;1.80;;;5.00;99.90;;;;;;5075183;28;20480;-72
2022/01/05 05:21:55;;;;;;;3.60;1.13;;;4.90;99.90;;;;;;5074827;28;20911;-71
2022/01/05 05:24:22;;;;;;;3.63;1.53;;;4.90;99.90;;;;;;5074686;28;20507;-71
2022/01/05 05:26:48;;;;;;;4.20;1.23;;;4.90;99.90;;;;;;5075374;28;20461;-72
2022/01/05 05:29:15;;;;;;;2.10;1.13;;;4.80;99.90;;;;;;5074965;28;20771;-72
2022/01/05 05:31:43;;;;;;;9.87;1.50;;;4.80;99.90;;;;;;5075496;28;20822;-72
2022/01/05 05:34:10;;;;;;;3.57;1.20;;;4.80;99.90;;;;;;5075083;28;20476;-71
2022/01/05 05:36:37;;;;;;;5.60;1.73;;;4.70;99.90;;;;;;5074814;28;20469;-71
2022/01/05 05:39:03;;;;;;;3.03;1.67;;;4.70;99.90;;;;;;5074544;28;20462;-71
2022/01/05 05:41:30;;;;;;;6.20;1.60;;;4.70;99.90;;;;;;5074979;28;20465;-71
2022/01/05 05:43:57;;;;;;;3.37;1.03;;;4.70;99.90;;;;;;5074864;28;20524;-71
2022/01/05 05:46:23;;;;;;;3.80;1.70;;;4.70;99.90;;;;;;5075197;28;20473;-70
2022/01/05 05:48:51;;;;;;;3.47;1.53;;;4.60;99.90;;;;;;5074111;28;20486;-70
2022/01/05 05:51:18;;;;;;;6.60;1.50;;;4.60;99.90;;;;;;5074417;28;20519;-70
2022/01/05 05:53:45;;;;;;;4.10;1.17;;;4.60;99.90;;;;;;5074505;28;20477;-70
2022/01/05 05:56:11;;;;;;;6.03;1.70;;;4.70;99.90;;;;;;5074381;28;20458;-71
2022/01/05 05:58:38;;;;;;;3.73;1.33;;;4.70;99.90;;;;;;5074530;28;20458;-71
2022/01/05 06:01:05;;;;;;;6.77;2.40;;;4.60;99.90;;;;;;5077451;28;20450;-71
2022/01/05 06:03:31;;;;;;;5.37;2.50;;;4.60;99.90;;;;;;5078743;28;20462;-71
2022/01/05 06:05:59;;;;;;;4.07;1.50;;;4.60;99.90;;;;;;5078851;28;20454;-71
2022/01/05 06:08:26;;;;;;;6.93;2.30;;;4.70;99.90;;;;;;5078774;28;20458;-71
2022/01/05 06:10:53;;;;;;;7.23;2.00;;;4.70;99.90;;;;;;5078472;28;20477;-70
2022/01/05 06:13:19;;;;;;;6.67;2.30;;;4.60;99.90;;;;;;5078305;28;20915;-70
2022/01/05 06:15:47;;;;;;;4.70;1.70;;;4.60;99.90;;;;;;5078059;28;20523;-70
2022/01/05 06:18:14;;;;;;;9.80;2.60;;;4.60;99.90;;;;;;5078618;28;20458;-70
2022/01/05 06:20:41;;;;;;;3.53;2.00;;;4.60;99.90;;;;;;5078136;28;20457;-71
2022/01/05 06:23:09;;;;;;;4.13;1.60;;;4.70;99.90;;;;;;5078570;28;20469;-72
2022/01/05 06:25:36;;;;;;;5.07;1.63;;;4.70;99.90;;;;;;5078009;28;20473;-71
2022/01/05 06:28:03;;;;;;;4.03;1.70;;;4.60;99.90;;;;;;5078359;28;20462;-71
2022/01/05 06:30:30;;;;;;;6.13;1.70;;;4.60;99.90;;;;;;5077660;28;20477;-71
2022/01/05 06:32:58;;;;;;;3.60;1.47;;;4.60;99.90;;;;;;5079385;28;20454;-71
2022/01/05 06:35:25;;;;;;;5.80;2.00;;;4.60;99.90;;;;;;5080945;28;20451;-71
2022/01/05 06:37:52;;;;;;;3.50;1.97;;;4.60;99.90;;;;;;5078718;28;20454;-72
2022/01/05 06:40:20;;;;;;;7.47;2.30;;;4.60;99.90;;;;;;5078654;28;20470;-70
2022/01/05 06:42:46;;;;;;;5.83;2.13;;;4.60;99.90;;;;;;5079073;28;20465;-71
2022/01/05 06:45:13;;;;;;;8.07;2.60;;;4.60;99.90;;;;;;5078225;28;20535;-70
2022/01/05 06:47:40;;;;;;;8.27;2.90;;;4.60;99.90;;;;;;5077315;28;20958;-71
2022/01/05 06:50:08;;;;;;;9.20;3.07;;;4.50;99.90;;;;;;5078038;28;20789;-71
2022/01/05 06:52:35;;;;;;;11.93;3.37;;;4.60;99.90;;;;;;5078435;28;20450;-72
2022/01/05 06:55:02;;;;;;;8.97;2.93;;;4.50;99.90;;;;;;5078340;28;20528;-71
2022/01/05 06:57:30;;;;;;;3.30;2.53;;;4.50;99.90;;;;;;5078516;28;20461;-72
2022/01/05 06:59:57;;;;;;;6.00;2.53;;;4.50;99.90;;;;;;5078225;28;20459;-71
2022/01/05 07:02:24;;;;;;;7.33;2.63;;;4.50;99.90;;;;;;5078569;28;20462;-70
2022/01/05 07:04:51;;;;;;;4.63;3.07;;;4.60;99.90;;;;;;5078505;28;20579;-72
2022/01/05 07:07:17;;;;;;;9.23;2.27;;;4.60;99.90;;;;;;5078340;28;20492;-72
2022/01/05 07:09:45;;;;;;;3.70;2.30;;;4.50;99.90;;;;;;5077545;28;20469;-71
2022/01/05 07:12:13;;;;;;;7.17;2.10;;;4.60;99.90;;;;;;5076805;28;20482;-70
2022/01/05 07:14:41;;;;;;;9.00;2.63;;;4.50;99.90;;;;;;5077036;28;20462;-70
2022/01/05 07:17:08;;;;;;;9.97;1.90;;;4.50;99.90;;;;;;5077113;28;20462;-71
2022/01/05 07:19:34;;;;;;;7.43;2.17;;;4.50;99.90;;;;;;5076848;28;20458;-71
2022/01/05 07:22:01;;;;;;;11.73;2.60;;;4.60;99.90;;;;;;5077493;28;20450;-72
2022/01/05 07:24:28;;;;;;;7.83;2.47;;;4.60;99.90;;;;;;5077542;28;20465;-70
2022/01/05 07:26:54;;;;;;;9.00;2.63;;;4.50;99.90;;;;;;5076683;28;20462;-70
2022/01/05 07:29:21;;;;;;;6.23;2.27;;;4.50;99.90;;;;;;5076946;28;20470;-71
2022/01/05 07:31:49;;;;;;;8.20;2.30;;;4.50;99.90;;;;;;5076716;28;20615;-71
2022/01/05 07:34:16;;;;;;;6.40;2.70;;;4.50;99.90;;;;;;5076967;28;20454;-70
2022/01/05 07:36:43;;;;;;;4.40;1.80;;;4.50;99.90;;;;;;5076991;28;20454;-71
2022/01/05 07:39:10;;;;;;;5.20;2.00;;;4.50;99.90;;;;;;5076752;28;20972;-70
2022/01/05 07:41:38;;;;;;;4.73;1.97;;;4.50;99.90;;;;;;5077086;28;20481;-70
2022/01/05 07:44:06;;;;;;;4.13;2.03;;;4.50;99.90;;;;;;5076867;28;20816;-70
2022/01/05 07:46:33;;;;;;;6.33;2.20;;;4.50;99.90;;;;;;5076612;28;20474;-72
2022/01/05 07:49:03;;;;;;;5.50;1.67;;;4.50;99.90;;;;;;5076448;28;20482;-71
2022/01/05 07:51:29;;;;;;;11.30;2.43;;;4.50;99.90;;;;;;5076678;28;20516;-71
2022/01/05 07:53:56;;;;;;;5.33;1.50;;;4.50;99.90;;;;;;5076418;28;20486;-70
2022/01/05 07:56:23;;;;;;;6.20;2.40;;;4.50;99.90;;;;;;5076238;28;20458;-70
2022/01/05 07:58:50;;;;;;;6.97;1.80;;;4.50;99.90;;;;;;5076118;28;20957;-71
2022/01/05 08:01:18;;;;;;;8.40;2.00;;;4.40;99.90;;;;;;5076694;28;20454;-71
2022/01/05 08:03:45;;;;;;;7.67;2.10;;;4.40;99.90;;;;;;5076159;28;20557;-71
2022/01/05 08:06:13;;;;;;;8.93;1.67;;;4.40;99.90;;;;;;5075947;28;20552;-71
2022/01/05 08:08:40;;;;;;;4.50;1.83;;;4.40;99.90;;;;;;5076759;28;20462;-70
2022/01/05 08:11:07;;;;;;;3.03;1.77;;;4.50;99.90;;;;;;5075883;28;20861;-71
2022/01/05 08:13:33;;;;;;;7.33;1.87;;;4.50;99.90;;;;;;5076041;28;20466;-71
2022/01/05 08:16:00;;;;;;;5.73;2.23;;;4.40;99.90;;;;;;5076042;28;20539;-71
2022/01/05 08:18:27;;;;;;;10.93;1.73;;;4.40;99.90;;;;;;5076099;28;20782;-71
2022/01/05 08:20:54;;;;;;;7.67;3.20;;;4.40;99.90;;;;;;5075375;28;20519;-70
2022/01/05 08:23:23;;;;;;;10.13;2.20;;;4.40;99.90;;;;;;5074805;28;20465;-71
2022/01/05 08:25:51;;;;;;;13.77;1.83;;;4.30;99.90;;;;;;5075912;28;20462;-70
2022/01/05 08:28:19;;;;;;;7.63;1.73;;;4.30;99.90;;;;;;5075735;28;20465;-70
2022/01/05 08:30:47;;;;;;;11.73;2.40;;;4.30;99.90;;;;;;5075184;28;20980;-70
2022/01/05 08:33:14;;;;;;;5.30;1.90;;;4.30;99.90;;;;;;5075614;28;20465;-71
2022/01/05 08:35:42;;;;;;;10.00;2.37;;;4.30;99.90;;;;;;5075539;28;20922;-72
2022/01/05 08:38:09;;;;;;;2.97;1.80;;;4.30;99.90;;;;;;5075389;28;20458;-72
2022/01/05 08:40:39;;;;;;;4.93;1.93;;;4.30;99.90;;;;;;5075356;28;20453;-71
2022/01/05 08:43:06;;;;;;;4.60;1.63;;;4.30;99.90;;;;;;5075393;28;20883;-71
2022/01/05 08:45:34;;;;;;;6.00;1.87;;;4.30;99.90;;;;;;5075262;28;20458;-70
2022/01/05 08:48:01;;;;;;;6.30;1.70;;;4.30;99.90;;;;;;5075025;28;20482;-71
2022/01/05 08:50:30;;;;;;;13.87;2.20;;;4.30;99.90;;;;;;5075206;28;20469;-70
2022/01/05 08:52:57;;;;;;;7.57;2.07;;;4.30;99.90;;;;;;5075083;28;20462;-71
2022/01/05 08:55:27;;;;;;;6.50;1.70;;;4.30;99.90;;;;;;5075166;28;20512;-71
2022/01/05 08:57:56;;;;;;;11.43;2.37;;;4.30;99.90;;;;;;5075236;28;20438;-71
2022/01/05 09:00:23;;;;;;;5.70;2.00;;;4.30;99.90;;;;;;5075261;28;20462;-71
2022/01/05 09:02:50;;;;;;;7.17;1.97;;;4.40;99.90;;;;;;5074649;28;20834;-71
2022/01/05 09:05:17;;;;;;;5.63;1.90;;;4.40;99.90;;;;;;5074448;28;20492;-71
2022/01/05 09:07:44;;;;;;;5.87;2.30;;;4.40;99.90;;;;;;5074974;28;20945;-71
2022/01/05 09:10:11;;;;;;;5.27;2.33;;;4.40;99.90;;;;;;5074583;28;20458;-71
2022/01/05 09:12:38;;;;;;;8.27;1.87;;;4.40;99.90;;;;;;5074803;28;20478;-71
2022/01/05 09:15:07;;;;;;;11.30;2.20;;;4.40;99.90;;;;;;5074870;28;20465;-71
2022/01/05 09:17:33;;;;;;;9.80;2.30;;;4.40;99.90;;;;;;5075147;28;20454;-71
2022/01/05 09:20:00;;;;;;;4.23;2.13;;;4.40;99.90;;;;;;5074740;28;20894;-70
2022/01/05 09:22:27;;;;;;;12.07;2.20;;;4.40;99.90;;;;;;5074429;28;20980;-70
2022/01/05 09:24:54;;;;;;;6.13;2.57;;;4.40;99.90;;;;;;5075004;28;20801;-70
2022/01/05 09:27:21;;;;;;;5.60;1.80;;;4.40;99.90;;;;;;5074863;28;20458;-72
2022/01/05 09:29:48;;;;;;;5.70;2.47;;;4.50;99.90;;;;;;5074403;28;20454;-71
2022/01/05 09:32:16;;;;;;;10.73;2.60;;;4.50;99.90;;;;;;5074375;28;20478;-72
2022/01/05 09:34:43;;;;;;;7.60;2.73;;;4.50;99.90;;;;;;5074336;28;20461;-71
2022/01/05 09:37:17;;;;;;;3.13;1.87;;;4.60;99.90;;;;;;5074517;28;20454;-71
2022/01/05 09:42:30;;;;;;;8.33;2.30;;;4.70;99.90;;;;;;5074574;28;20422;-71
2022/01/05 09:44:59;;;;;;;7.53;1.90;;;4.70;99.90;;;;;;5074525;28;20945;-71
2022/01/05 09:47:52;;;;;;;3.80;2.00;;;4.90;99.90;;;;;;5074570;28;20486;-71
2022/01/05 09:50:20;;;;;;;5.10;2.10;;;4.90;99.90;;;;;;5066311;28;20516;-71
2022/01/05 09:52:47;;;;;;;6.50;2.40;;;5.00;99.90;;;;;;5074221;28;20482;-71
2022/01/05 09:55:16;;;;;;;9.53;2.73;;;5.00;99.90;;;;;;5074613;28;20458;-69
2022/01/05 09:57:46;;;;;;;7.17;2.60;;;5.10;99.90;;;;;;5074521;28;20461;-70
2022/01/05 10:00:16;;;;;;;5.50;2.33;;;5.00;99.90;;;;;;5074430;28;20458;-71
2022/01/05 10:02:46;;;;;;;7.10;2.80;;;5.00;99.90;;;;;;5074378;28;20450;-71
2022/01/05 10:05:16;;;;;;;9.37;2.03;;;5.10;99.90;;;;;;5074545;28;20458;-70
2022/01/05 10:07:43;;;;;;;6.90;2.30;;;5.10;99.90;;;;;;5074139;28;21010;-71
2022/01/05 10:10:10;;;;;;;4.87;2.13;;;5.10;99.90;;;;;;5074446;28;20519;-71
2022/01/05 10:12:37;;;;;;;7.40;2.07;;;5.10;99.90;;;;;;5074196;28;20481;-71
2022/01/05 10:15:05;;;;;;;11.03;2.80;;;5.10;99.90;;;;;;5074104;28;20460;-71
2022/01/05 10:17:34;;;;;;;7.20;2.57;;;5.20;99.90;;;;;;5074058;28;20554;-71
2022/01/05 10:20:05;;;;;;;5.60;2.07;;;5.20;99.90;;;;;;5074412;28;20490;-71
2022/01/05 10:22:34;;;;;;;6.03;2.57;;;5.20;99.90;;;;;;5074292;28;20446;-71
2022/01/05 10:25:03;;;;;;;13.73;2.70;;;5.20;99.90;;;;;;5074041;28;20461;-71
2022/01/05 10:27:32;;;;;;;7.40;2.47;;;5.20;99.90;;;;;;5074361;28;20458;-71
2022/01/05 10:30:01;;;;;;;8.67;2.67;;;5.20;99.90;;;;;;5075522;28;20454;-71
2022/01/05 10:32:30;;;;;;;8.97;2.83;;;5.20;99.90;;;;;;5073606;28;20474;-70
2022/01/05 10:35:13;;;;;;;6.90;2.43;;;5.30;99.90;;;;;;5074183;28;20457;-71
2022/01/05 10:37:43;;;;;;;12.20;2.30;;;5.20;99.90;;;;;;5073827;28;20442;-70
2022/01/05 10:40:14;;;;;;;8.77;2.40;;;5.30;99.90;;;;;;5074122;28;20461;-71
2022/01/05 10:42:42;;;;;;;6.53;2.67;;;5.20;99.90;;;;;;5074532;28;20751;-72
2022/01/05 10:45:11;;;;;;;6.50;2.00;;;5.20;99.90;;;;;;5073808;28;20454;-72
2022/01/05 10:47:38;;;;;;;7.73;3.67;;;5.20;99.90;;;;;;5077417;28;20559;-71
2022/01/05 10:50:11;;;;;;;6.97;2.23;;;5.20;99.90;;;;;;5081245;28;20443;-72
2022/01/05 10:52:41;;;;;;;9.77;2.20;;;5.10;99.90;;;;;;5080158;28;20473;-71
2022/01/05 10:55:15;;;;;;;9.77;2.40;;;5.10;99.90;;;;;;5079007;28;20454;-71
2022/01/05 10:57:57;;;;;;;7.30;3.00;;;5.10;99.90;;;;;;5078230;28;20442;-70
2022/01/05 11:00:35;;;;;;;12.80;2.70;;;5.20;99.90;;;;;;5078561;28;20465;-73
2022/01/05 11:03:02;;;;;;;7.47;2.17;;;5.20;99.90;;;;;;5077733;28;20466;-70
2022/01/05 11:05:29;;;;;;;5.80;2.37;;;5.30;99.90;;;;;;5077081;28;20554;-70
2022/01/05 11:08:08;;;;;;;7.07;2.00;;;5.30;99.90;;;;;;5077438;28;20458;-70
2022/01/05 11:10:35;;;;;;;6.07;2.50;;;5.40;99.90;;;;;;5077243;28;20503;-72
2022/01/05 11:13:02;;;;;;;14.03;2.97;;;5.50;99.90;;;;;;5077057;28;20486;-71
2022/01/05 11:15:31;;;;;;;8.93;2.53;;;5.50;99.90;;;;;;5076936;28;20889;-71
2022/01/05 11:18:10;;;;;;;4.53;2.20;;;5.60;99.90;;;;;;5077412;28;20842;-72
2022/01/05 11:20:38;;;;;;;4.80;1.93;;;5.60;99.90;;;;;;5077317;28;20446;-72
2022/01/05 11:23:07;;;;;;;11.23;2.23;;;5.60;99.90;;;;;;5077388;28;20458;-72
2022/01/05 11:25:40;;;;;;;4.93;2.40;;;5.60;99.90;;;;;;5077192;28;20468;-73
2022/01/05 11:28:08;;;;;;;7.93;2.40;;;5.60;99.90;;;;;;5076976;28;20454;-71
2022/01/05 11:30:35;;;;;;;7.77;2.33;;;5.60;99.90;;;;;;5077108;28;20490;-71
2022/01/05 11:33:02;;;;;;;7.80;2.30;;;5.70;99.90;;;;;;5076640;28;20991;-73
2022/01/05 11:35:29;;;;;;;4.50;2.70;;;5.80;99.90;;;;;;5077033;28;20463;-73
2022/01/05 11:37:59;;;;;;;6.60;2.30;;;5.80;99.90;;;;;;5077355;28;20458;-72
2022/01/05 11:40:29;;;;;;;7.73;2.70;;;5.80;99.90;;;;;;5077031;28;20454;-71
2022/01/05 11:42:59;;;;;;;6.77;2.30;;;5.80;99.90;;;;;;5077078;28;20527;-72
2022/01/05 11:45:32;;;;;;;9.07;2.50;;;5.80;99.90;;;;;;5077012;28;20465;-72
2022/01/05 11:48:17;;;;;;;4.20;2.37;;;5.70;99.90;;;;;;5076592;28;20478;-72
2022/01/05 11:50:47;;;;;;;8.27;2.40;;;5.70;99.90;;;;;;5076206;28;20443;-71
2022/01/05 11:53:43;;;;;;;5.00;2.30;;;5.60;99.90;;;;;;5077495;28;20481;-72
2022/01/05 11:56:17;;;;;;;5.20;2.17;;;5.60;99.90;;;;;;5077866;28;20446;-71
2022/01/05 11:58:56;;;;;;;5.97;2.40;;;5.60;99.90;;;;;;5081294;28;20442;-71
2022/01/05 12:01:32;;;;;;;11.80;2.97;;;5.50;99.90;;;;;;5081471;28;20450;-72
2022/01/05 12:04:14;;;;;;;5.23;2.40;;;5.50;99.90;;;;;;5081071;28;20499;-71
2022/01/05 12:07:03;;;;;;;6.63;2.60;;;5.50;99.90;;;;;;5081832;28;20894;-70
2022/01/05 12:09:32;;;;;;;10.63;2.77;;;5.50;99.90;;;;;;5076592;28;20466;-71
2022/01/05 12:12:23;;;;;;;3.77;2.17;;;5.60;99.90;;;;;;5076772;28;20489;-72
2022/01/05 12:14:52;;;;;;;3.50;2.30;;;5.60;99.90;;;;;;5077790;28;20500;-71
2022/01/05 12:17:20;;;;;;;8.80;3.10;;;5.60;99.90;;;;;;5077038;28;20458;-71
2022/01/05 12:20:06;;;;;;;9.60;2.77;;;5.70;99.90;;;;;;5076200;28;20490;-72
2022/01/05 12:22:33;;;;;;;5.30;2.50;;;5.60;99.90;;;;;;5076886;28;20508;-73
2022/01/05 12:25:17;;;;;;;4.33;2.30;;;5.60;99.90;;;;;;5076874;28;20786;-72
2022/01/05 12:28:02;;;;;;;6.70;3.20;;;5.60;99.90;;;;;;5076784;28;20438;-72
2022/01/05 12:30:41;;;;;;;5.40;2.87;;;5.60;99.90;;;;;;5077836;28;20465;-72
2022/01/05 12:33:13;;;;;;;6.30;2.97;;;5.50;99.90;;;;;;5080999;28;20790;-71
2022/01/05 12:35:59;;;;;;;4.53;2.60;;;5.50;99.90;;;;;;5078824;28;20453;-71
2022/01/05 12:38:47;;;;;;;7.20;2.60;;;5.50;99.90;;;;;;5077230;28;20474;-72
2022/01/05 12:41:34;;;;;;;6.03;2.73;;;5.40;99.90;;;;;;5076186;28;20786;-71
2022/01/05 12:44:22;;;;;;;5.47;2.90;;;5.40;99.90;;;;;;5075745;28;20438;-71
2022/01/05 12:46:50;;;;;;;9.63;2.80;;;5.40;99.90;;;;;;5063752;28;20458;-73
2022/01/05 12:49:18;;;;;;;6.90;2.70;;;5.50;99.90;;;;;;5075861;28;20482;-71
2022/01/05 12:51:53;;;;;;;10.17;2.60;;;5.50;99.90;;;;;;5076585;28;20454;-72
2022/01/05 12:54:23;;;;;;;3.93;2.40;;;5.50;99.90;;;;;;5075702;28;20854;-70
2022/01/05 12:56:54;;;;;;;3.50;2.60;;;5.60;99.90;;;;;;5075477;28;20431;-71
2022/01/05 12:59:28;;;;;;;5.90;2.93;;;5.60;99.90;;;;;;5075662;28;20507;-71
2022/01/05 13:02:00;;;;;;;4.50;2.30;;;5.60;99.90;;;;;;5075758;28;20784;-73
2022/01/05 13:04:27;;;;;;;8.40;2.93;;;5.60;99.90;;;;;;5075978;28;20821;-70